createdAt,value
2017-02-05T00:00:46.110Z,21.62
2017-02-05T00:01:46.048Z,21.42
2017-02-05T00:02:45.984Z,21.62
2017-02-05T00:03:45.925Z,21.42
2017-02-05T00:04:45.863Z,21.42
2017-02-05T00:05:45.794Z,21.71
2017-02-05T00:06:45.733Z,21.42
2017-02-05T00:07:45.671Z,21.71
2017-02-05T00:08:45.606Z,21.62
2017-02-05T00:09:45.542Z,21.62
2017-02-05T00:10:45.481Z,21.62
2017-02-05T00:11:45.418Z,21.52
2017-02-05T00:12:45.353Z,21.42
2017-02-05T00:13:45.296Z,21.42
2017-02-05T00:14:45.228Z,21.42
2017-02-05T00:15:45.165Z,21.62
2017-02-05T00:16:45.106Z,21.33
2017-02-05T00:17:45.042Z,21.42
2017-02-05T00:18:44.977Z,21.51
2017-02-05T00:19:44.913Z,21.62
2017-02-05T00:20:44.850Z,21.52
2017-02-05T00:21:44.787Z,21.52
2017-02-05T00:22:44.335Z,21.71
2017-02-05T00:23:44.666Z,21.52
2017-02-05T00:24:44.598Z,21.62
2017-02-05T00:25:44.535Z,21.62
2017-02-05T00:26:44.473Z,21.62
2017-02-05T00:27:44.412Z,21.51
2017-02-05T00:28:44.348Z,21.62
2017-02-05T00:29:44.286Z,21.42
2017-02-05T00:30:44.221Z,21.51
2017-02-05T00:31:44.158Z,21.61
2017-02-05T00:32:44.099Z,21.52
2017-02-05T00:33:44.034Z,21.61
2017-02-05T00:34:43.971Z,21.61
2017-02-05T00:35:43.909Z,21.61
2017-02-05T00:36:43.844Z,21.52
2017-02-05T00:37:43.783Z,21.52
2017-02-05T00:38:43.719Z,21.52
2017-02-05T00:39:43.660Z,21.52
2017-02-05T00:40:43.594Z,21.62
2017-02-05T00:41:43.531Z,21.62
2017-02-05T00:42:43.471Z,21.62
2017-02-05T00:43:43.403Z,21.62
2017-02-05T00:44:43.341Z,21.51
2017-02-05T00:45:43.279Z,21.61
2017-02-05T00:46:43.217Z,21.31
2017-02-05T00:47:43.163Z,21.61
2017-02-05T00:48:43.099Z,21.62
2017-02-05T00:49:43.037Z,21.62
2017-02-05T00:50:42.975Z,21.51
2017-02-05T00:51:42.902Z,21.62
2017-02-05T00:52:42.838Z,21.51
2017-02-05T00:53:42.780Z,21.52
2017-02-05T00:54:42.711Z,21.7
2017-02-05T00:55:42.656Z,21.52
2017-02-05T00:56:42.586Z,21.52
2017-02-05T00:57:42.527Z,21.61
2017-02-05T00:58:42.461Z,21.7
2017-02-05T00:59:42.404Z,21.52
2017-02-05T01:01:12.874Z,21.42
2017-02-05T01:02:12.807Z,21.62
2017-02-05T01:03:12.744Z,21.51
2017-02-05T01:04:12.682Z,21.61
2017-02-05T01:05:12.619Z,21.51
2017-02-05T01:06:12.558Z,21.51
2017-02-05T01:07:12.517Z,21.51
2017-02-05T01:08:12.040Z,21.7
2017-02-05T01:09:12.568Z,21.7
2017-02-05T01:10:12.654Z,21.41
2017-02-05T01:11:12.443Z,21.51
2017-02-05T01:12:12.177Z,21.7
2017-02-05T01:13:12.114Z,21.7
2017-02-05T01:14:12.055Z,21.71
2017-02-05T01:15:11.988Z,21.71
2017-02-05T01:16:11.926Z,21.31
2017-02-05T01:17:11.865Z,21.61
2017-02-05T01:18:11.803Z,21.31
2017-02-05T01:19:11.752Z,21.31
2017-02-05T01:20:11.674Z,21.42
2017-02-05T01:21:11.615Z,21.7
2017-02-05T01:22:11.548Z,21.51
2017-02-05T01:23:11.489Z,21.51
2017-02-05T01:24:11.423Z,21.42
2017-02-05T01:25:11.360Z,21.42
2017-02-05T01:26:11.296Z,21.52
2017-02-05T01:27:11.233Z,21.51
2017-02-05T01:28:11.172Z,21.41
2017-02-05T01:29:11.108Z,21.71
2017-02-05T01:30:11.045Z,21.41
2017-02-05T01:31:10.589Z,21.62
2017-02-05T01:32:10.529Z,21.51
2017-02-05T01:33:10.855Z,21.51
2017-02-05T01:34:10.791Z,21.51
2017-02-05T01:35:10.729Z,21.42
2017-02-05T01:36:10.667Z,21.33
2017-02-05T01:37:10.213Z,21.51
2017-02-05T01:38:10.546Z,21.33
2017-02-05T01:39:10.476Z,21.22
2017-02-05T01:40:10.022Z,21.51
2017-02-05T01:41:09.961Z,21.42
2017-02-05T01:42:10.287Z,21.61
2017-02-05T01:43:10.225Z,21.31
2017-02-05T01:44:09.771Z,21.22
2017-02-05T01:45:10.098Z,21.52
2017-02-05T01:46:10.036Z,21.51
2017-02-05T01:47:09.975Z,21.52
2017-02-05T01:48:09.910Z,21.51
2017-02-05T01:49:09.845Z,21.51
2017-02-05T01:50:09.783Z,21.33
2017-02-05T01:51:09.720Z,21.51
2017-02-05T01:52:09.655Z,21.52
2017-02-05T01:53:09.596Z,21.41
2017-02-05T01:54:09.528Z,21.22
2017-02-05T01:55:09.470Z,21.41
2017-02-05T01:56:09.405Z,21.41
2017-02-05T01:57:09.341Z,21.31
2017-02-05T01:58:09.288Z,21.52
2017-02-05T01:59:09.220Z,21.41
2017-02-05T02:00:09.152Z,21.41
2017-02-05T02:01:09.092Z,21.52
2017-02-05T02:02:09.031Z,21.51
2017-02-05T02:03:08.965Z,21.51
2017-02-05T02:04:08.902Z,21.42
2017-02-05T02:05:08.841Z,21.31
2017-02-05T02:06:08.779Z,21.42
2017-02-05T02:07:08.714Z,21.61
2017-02-05T02:08:08.651Z,21.22
2017-02-05T02:09:08.584Z,21.51
2017-02-05T02:10:08.521Z,21.31
2017-02-05T02:11:08.459Z,21.22
2017-02-05T02:12:08.397Z,21.23
2017-02-05T02:13:08.337Z,21.31
2017-02-05T02:14:08.271Z,21.52
2017-02-05T02:15:08.212Z,21.23
2017-02-05T02:16:07.758Z,21.22
2017-02-05T02:17:08.080Z,21.42
2017-02-05T02:18:07.630Z,21.61
2017-02-05T02:19:07.955Z,21.51
2017-02-05T02:20:07.895Z,21.41
2017-02-05T02:21:07.833Z,21.51
2017-02-05T02:22:07.769Z,21.41
2017-02-05T02:23:07.704Z,21.41
2017-02-05T02:24:07.645Z,21.51
2017-02-05T02:25:07.577Z,21.61
2017-02-05T02:26:07.514Z,21.22
2017-02-05T02:27:07.453Z,21.13
2017-02-05T02:28:07.393Z,21.13
2017-02-05T02:29:07.328Z,21.22
2017-02-05T02:30:06.873Z,21.33
2017-02-05T02:31:07.203Z,21.33
2017-02-05T02:32:07.140Z,21.41
2017-02-05T02:33:07.077Z,21.42
2017-02-05T02:34:07.013Z,21.33
2017-02-05T02:35:06.971Z,21.31
2017-02-05T02:36:06.887Z,21.23
2017-02-05T02:37:06.823Z,21.12
2017-02-05T02:38:06.764Z,21.31
2017-02-05T02:39:06.697Z,21.22
2017-02-05T02:40:06.634Z,21.31
2017-02-05T02:41:06.572Z,21.42
2017-02-05T02:42:06.513Z,21.31
2017-02-05T02:43:06.445Z,21.41
2017-02-05T02:44:06.384Z,21.42
2017-02-05T02:45:06.320Z,21.12
2017-02-05T02:46:06.262Z,21.41
2017-02-05T02:47:06.195Z,21.23
2017-02-05T02:48:06.134Z,21.51
2017-02-05T02:49:06.066Z,21.31
2017-02-05T02:50:06.007Z,21.31
2017-02-05T02:51:05.941Z,21.23
2017-02-05T02:52:05.879Z,21.61
2017-02-05T02:53:05.821Z,21.42
2017-02-05T02:54:05.755Z,21.12
2017-02-05T02:55:05.695Z,21.41
2017-02-05T02:56:05.627Z,21.61
2017-02-05T02:57:05.566Z,21.31
2017-02-05T02:58:05.503Z,21.23
2017-02-05T02:59:05.441Z,21.31
2017-02-05T03:00:05.383Z,21.22
2017-02-05T03:01:05.315Z,21.23
2017-02-05T03:02:05.248Z,21.31
2017-02-05T03:03:05.186Z,21.31
2017-02-05T03:04:05.123Z,21.23
2017-02-05T03:05:05.065Z,21.22
2017-02-05T03:06:05.000Z,21.31
2017-02-05T03:07:04.937Z,21.23
2017-02-05T03:08:04.873Z,21.31
2017-02-05T03:09:04.810Z,21.33
2017-02-05T03:10:04.746Z,21.31
2017-02-05T03:11:04.688Z,21.41
2017-02-05T03:12:04.622Z,21.31
2017-02-05T03:13:04.557Z,21.22
2017-02-05T03:14:04.496Z,21.31
2017-02-05T03:15:04.433Z,21.31
2017-02-05T03:16:04.368Z,21.31
2017-02-05T03:17:04.306Z,21.33
2017-02-05T03:18:04.244Z,21.41
2017-02-05T03:19:04.181Z,21.31
2017-02-05T03:20:04.118Z,21.31
2017-02-05T03:21:04.053Z,21.31
2017-02-05T03:22:03.992Z,21.41
2017-02-05T03:23:03.937Z,21.13
2017-02-05T03:24:03.867Z,21.22
2017-02-05T03:25:03.802Z,21.31
2017-02-05T03:26:03.739Z,21.23
2017-02-05T03:27:03.674Z,21.31
2017-02-05T03:28:03.615Z,21.31
2017-02-05T03:29:03.551Z,21.22
2017-02-05T03:30:03.486Z,21.33
2017-02-05T03:31:03.427Z,21.31
2017-02-05T03:32:03.360Z,21.31
2017-02-05T03:33:03.301Z,21.31
2017-02-05T03:34:03.237Z,21.31
2017-02-05T03:35:03.171Z,21.22
2017-02-05T03:36:03.111Z,21.33
2017-02-05T03:37:03.046Z,21.31
2017-02-05T03:38:02.982Z,21.12
2017-02-05T03:39:02.920Z,21.22
2017-02-05T03:40:02.860Z,21.22
2017-02-05T03:41:02.797Z,21.23
2017-02-05T03:42:02.733Z,21.22
2017-02-05T03:43:02.667Z,21.22
2017-02-05T03:44:02.609Z,21.22
2017-02-05T03:45:02.542Z,21.31
2017-02-05T03:46:02.481Z,21.31
2017-02-05T03:47:02.417Z,21.22
2017-02-05T03:48:02.355Z,21.31
2017-02-05T03:49:01.902Z,21.22
2017-02-05T03:50:02.227Z,21.31
2017-02-05T03:51:02.165Z,21.31
2017-02-05T03:52:02.102Z,21.31
2017-02-05T03:53:02.046Z,21.31
2017-02-05T03:54:01.976Z,21.31
2017-02-05T03:55:01.915Z,21.23
2017-02-05T03:56:01.852Z,21.31
2017-02-05T03:57:01.790Z,21.22
2017-02-05T03:58:01.723Z,21.22
2017-02-05T03:59:01.661Z,21.22
2017-02-05T04:00:01.598Z,21.31
2017-02-05T04:01:01.533Z,21.22
2017-02-05T04:02:01.488Z,21.31
2017-02-05T04:03:01.407Z,21.22
2017-02-05T04:04:00.965Z,21.31
2017-02-05T04:05:01.282Z,21.31
2017-02-05T04:06:01.221Z,21.31
2017-02-05T04:07:01.169Z,21.41
2017-02-05T04:08:01.096Z,21.31
2017-02-05T04:09:01.032Z,21.31
2017-02-05T04:10:00.982Z,21.41
2017-02-05T04:11:00.917Z,21.31
2017-02-05T04:12:00.842Z,21.33
2017-02-05T04:13:00.792Z,21.31
2017-02-05T04:14:00.336Z,21.22
2017-02-05T04:15:00.652Z,21.23
2017-02-05T04:16:00.601Z,21.41
2017-02-05T04:17:00.541Z,21.22
2017-02-05T04:18:00.475Z,21.22
2017-02-05T04:19:00.406Z,21.22
2017-02-05T04:20:00.341Z,21.41
2017-02-05T04:21:00.275Z,21.22
2017-02-05T04:22:00.210Z,21.42
2017-02-05T04:23:00.153Z,21.22
2017-02-05T04:24:00.088Z,21.22
2017-02-05T04:25:00.025Z,21.41
2017-02-05T04:25:59.961Z,21.31
2017-02-05T04:26:59.900Z,21.41
2017-02-05T04:27:59.842Z,21.41
2017-02-05T04:28:59.772Z,21.22
2017-02-05T04:29:59.711Z,21.22
2017-02-05T04:30:59.646Z,21.41
2017-02-05T04:31:59.583Z,21.31
2017-02-05T04:32:59.131Z,21.41
2017-02-05T04:33:59.457Z,21.22
2017-02-05T04:34:59.393Z,21.22
2017-02-05T04:35:59.333Z,21.31
2017-02-05T04:36:59.269Z,21.22
2017-02-05T04:37:58.815Z,21.22
2017-02-05T04:38:59.144Z,21.22
2017-02-05T04:39:59.077Z,21.31
2017-02-05T04:40:59.021Z,21.41
2017-02-05T04:41:58.951Z,21.31
2017-02-05T04:42:58.890Z,21.41
2017-02-05T04:43:58.829Z,21.31
2017-02-05T04:44:58.767Z,21.22
2017-02-05T04:45:58.702Z,21.31
2017-02-05T04:46:58.638Z,21.41
2017-02-05T04:47:58.573Z,21.41
2017-02-05T04:48:58.511Z,21.31
2017-02-05T04:49:58.059Z,21.41
2017-02-05T04:50:58.384Z,21.31
2017-02-05T04:51:58.327Z,21.31
2017-02-05T04:52:58.259Z,21.41
2017-02-05T04:53:58.196Z,21.41
2017-02-05T04:54:58.133Z,21.41
2017-02-05T04:55:58.071Z,21.41
2017-02-05T04:56:58.011Z,21.41
2017-02-05T04:57:57.948Z,21.31
2017-02-05T04:58:57.884Z,21.41
2017-02-05T04:59:57.821Z,21.41
2017-02-05T05:00:57.758Z,21.31
2017-02-05T05:01:57.693Z,21.31
2017-02-05T05:02:57.631Z,21.22
2017-02-05T05:03:57.565Z,21.22
2017-02-05T05:04:57.505Z,21.22
2017-02-05T05:05:57.440Z,21.22
2017-02-05T05:06:57.376Z,21.41
2017-02-05T05:07:57.318Z,21.51
2017-02-05T05:08:57.252Z,21.31
2017-02-05T05:09:56.807Z,21.31
2017-02-05T05:10:57.129Z,21.41
2017-02-05T05:11:57.066Z,21.41
2017-02-05T05:12:57.001Z,21.31
2017-02-05T05:13:56.941Z,21.41
2017-02-05T05:14:56.878Z,21.31
2017-02-05T05:15:56.811Z,21.31
2017-02-05T05:16:56.749Z,21.41
2017-02-05T05:17:56.687Z,21.31
2017-02-05T05:18:56.626Z,21.41
2017-02-05T05:19:56.558Z,21.31
2017-02-05T05:20:56.496Z,21.33
2017-02-05T05:21:56.434Z,21.41
2017-02-05T05:22:56.369Z,21.42
2017-02-05T05:23:56.308Z,21.31
2017-02-05T05:24:56.243Z,21.41
2017-02-05T05:25:56.181Z,21.41
2017-02-05T05:26:56.119Z,21.41
2017-02-05T05:27:56.057Z,21.41
2017-02-05T05:28:55.995Z,21.31
2017-02-05T05:29:55.931Z,21.31
2017-02-05T05:30:55.867Z,21.31
2017-02-05T05:31:55.802Z,21.41
2017-02-05T05:32:55.742Z,21.31
2017-02-05T05:33:55.679Z,21.31
2017-02-05T05:34:55.616Z,21.31
2017-02-05T05:35:55.552Z,21.41
2017-02-05T05:36:55.487Z,21.41
2017-02-05T05:37:55.425Z,21.41
2017-02-05T05:38:55.361Z,21.31
2017-02-05T05:39:55.300Z,21.41
2017-02-05T05:40:55.236Z,21.31
2017-02-05T05:41:55.170Z,21.22
2017-02-05T05:42:55.109Z,21.51
2017-02-05T05:43:55.045Z,21.31
2017-02-05T05:44:54.984Z,21.31
2017-02-05T05:45:54.921Z,21.31
2017-02-05T05:46:54.860Z,21.31
2017-02-05T05:47:54.405Z,21.41
2017-02-05T05:48:54.730Z,21.41
2017-02-05T05:49:54.667Z,21.31
2017-02-05T05:50:54.603Z,21.22
2017-02-05T05:51:54.543Z,21.31
2017-02-05T05:52:54.482Z,21.22
2017-02-05T05:53:54.030Z,21.41
2017-02-05T05:54:54.351Z,21.31
2017-02-05T05:55:54.289Z,21.41
2017-02-05T05:56:54.228Z,21.41
2017-02-05T05:57:54.165Z,21.41
2017-02-05T05:58:54.103Z,21.41
2017-02-05T05:59:54.037Z,21.41
2017-02-05T06:00:53.977Z,21.31
2017-02-05T06:01:53.910Z,21.41
2017-02-05T06:02:53.852Z,21.31
2017-02-05T06:03:53.786Z,21.22
2017-02-05T06:04:53.723Z,21.22
2017-02-05T06:05:53.659Z,21.31
2017-02-05T06:06:53.213Z,21.41
2017-02-05T06:07:53.531Z,21.41
2017-02-05T06:08:53.470Z,21.22
2017-02-05T06:09:53.410Z,21.41
2017-02-05T06:10:53.644Z,21.41
2017-02-05T06:11:53.280Z,21.31
2017-02-05T06:12:53.222Z,21.41
2017-02-05T06:13:53.160Z,21.31
2017-02-05T06:14:53.092Z,21.31
2017-02-05T06:15:53.032Z,21.41
2017-02-05T06:16:52.968Z,21.41
2017-02-05T06:17:52.904Z,21.31
2017-02-05T06:18:52.839Z,21.41
2017-02-05T06:19:52.777Z,21.41
2017-02-05T06:20:52.716Z,21.41
2017-02-05T06:21:52.651Z,21.41
2017-02-05T06:22:52.591Z,21.31
2017-02-05T06:23:52.526Z,21.31
2017-02-05T06:24:52.459Z,21.31
2017-02-05T06:25:52.399Z,21.31
2017-02-05T06:26:52.336Z,21.31
2017-02-05T06:27:52.273Z,21.41
2017-02-05T06:28:52.209Z,21.41
2017-02-05T06:29:52.145Z,21.31
2017-02-05T06:30:52.086Z,21.41
2017-02-05T06:31:52.025Z,21.22
2017-02-05T06:32:51.956Z,21.31
2017-02-05T06:33:51.895Z,21.41
2017-02-05T06:34:51.830Z,21.31
2017-02-05T06:35:51.375Z,21.31
2017-02-05T06:36:51.706Z,21.31
2017-02-05T06:37:51.649Z,21.31
2017-02-05T06:38:51.579Z,21.31
2017-02-05T06:39:51.515Z,21.31
2017-02-05T06:40:51.450Z,21.31
2017-02-05T06:41:51.000Z,21.22
2017-02-05T06:42:51.328Z,21.41
2017-02-05T06:43:51.263Z,21.22
2017-02-05T06:44:51.199Z,21.41
2017-02-05T06:45:51.137Z,21.22
2017-02-05T06:46:51.073Z,21.51
2017-02-05T06:47:51.012Z,21.41
2017-02-05T06:48:50.952Z,21.41
2017-02-05T06:49:50.885Z,21.41
2017-02-05T06:50:50.822Z,21.41
2017-02-05T06:51:50.760Z,21.31
2017-02-05T06:52:50.697Z,21.51
2017-02-05T06:53:51.837Z,21.22
2017-02-05T06:54:50.571Z,21.31
2017-02-05T06:55:50.506Z,21.41
2017-02-05T06:56:50.445Z,21.41
2017-02-05T06:57:50.385Z,21.31
2017-02-05T06:58:50.319Z,21.51
2017-02-05T06:59:50.258Z,21.31
2017-02-05T07:00:50.193Z,21.31
2017-02-05T07:01:50.128Z,21.31
2017-02-05T07:02:50.064Z,21.31
2017-02-05T07:03:50.004Z,21.41
2017-02-05T07:04:49.940Z,21.31
2017-02-05T07:05:49.877Z,21.31
2017-02-05T07:06:49.814Z,21.31
2017-02-05T07:07:49.752Z,21.41
2017-02-05T07:08:49.689Z,21.31
2017-02-05T07:09:49.624Z,21.31
2017-02-05T07:10:49.811Z,21.41
2017-02-05T07:11:49.501Z,21.41
2017-02-05T07:12:49.435Z,21.41
2017-02-05T07:13:49.372Z,21.31
2017-02-05T07:14:49.316Z,21.31
2017-02-05T07:15:49.247Z,21.41
2017-02-05T07:16:49.184Z,21.31
2017-02-05T07:17:49.120Z,21.41
2017-02-05T07:18:49.059Z,21.41
2017-02-05T07:19:48.994Z,21.51
2017-02-05T07:20:48.933Z,21.41
2017-02-05T07:21:48.870Z,21.31
2017-02-05T07:22:48.809Z,21.31
2017-02-05T07:23:48.746Z,21.51
2017-02-05T07:24:48.681Z,21.41
2017-02-05T07:25:48.618Z,21.51
2017-02-05T07:26:48.554Z,21.41
2017-02-05T07:27:48.496Z,21.51
2017-02-05T07:28:48.429Z,21.41
2017-02-05T07:29:48.368Z,21.41
2017-02-05T07:30:48.303Z,21.31
2017-02-05T07:31:48.242Z,21.31
2017-02-05T07:32:48.179Z,21.51
2017-02-05T07:33:48.117Z,21.51
2017-02-05T07:34:48.052Z,21.41
2017-02-05T07:35:47.990Z,21.51
2017-02-05T07:36:47.925Z,21.51
2017-02-05T07:37:47.863Z,21.51
2017-02-05T07:38:47.800Z,20.93
2017-02-05T07:39:47.738Z,21.33
2017-02-05T07:40:47.677Z,21.31
2017-02-05T07:41:47.611Z,21.41
2017-02-05T07:42:47.550Z,21.22
2017-02-05T07:43:47.094Z,21.51
2017-02-05T07:44:47.420Z,20.83
2017-02-05T07:45:47.366Z,21.51
2017-02-05T07:46:47.298Z,21.51
2017-02-05T07:47:47.233Z,21.03
2017-02-05T07:48:47.179Z,21.51
2017-02-05T07:49:47.105Z,20.83
2017-02-05T07:50:47.042Z,21.41
2017-02-05T07:51:46.983Z,21.41
2017-02-05T07:52:46.529Z,21.23
2017-02-05T07:53:46.856Z,21.51
2017-02-05T07:54:46.792Z,21.41
2017-02-05T07:55:46.769Z,21.51
2017-02-05T07:56:46.666Z,21.41
2017-02-05T07:57:46.604Z,21.31
2017-02-05T07:58:46.542Z,21.51
2017-02-05T07:59:46.478Z,21.51
2017-02-05T08:00:46.415Z,21.12
2017-02-05T08:01:46.352Z,21.31
2017-02-05T08:02:46.288Z,21.51
2017-02-05T08:03:46.226Z,21.51
2017-02-05T08:04:46.163Z,21.41
2017-02-05T08:05:46.399Z,21.41
2017-02-05T08:06:46.039Z,21.41
2017-02-05T08:07:45.974Z,21.51
2017-02-05T08:08:45.911Z,21.51
2017-02-05T08:09:45.846Z,21.31
2017-02-05T08:10:45.393Z,21.51
2017-02-05T08:11:45.720Z,21.31
2017-02-05T08:12:45.657Z,21.52
2017-02-05T08:13:45.607Z,21.51
2017-02-05T08:14:45.140Z,21.51
2017-02-05T08:15:45.473Z,21.41
2017-02-05T08:16:45.405Z,21.31
2017-02-05T08:17:45.343Z,21.41
2017-02-05T08:18:45.278Z,21.41
2017-02-05T08:19:45.215Z,21.51
2017-02-05T08:20:45.164Z,21.41
2017-02-05T08:21:45.093Z,21.41
2017-02-05T08:22:45.036Z,21.51
2017-02-05T08:23:44.962Z,21.51
2017-02-05T08:24:44.899Z,21.31
2017-02-05T08:25:44.835Z,21.31
2017-02-05T08:26:44.776Z,21.31
2017-02-05T08:27:44.714Z,21.51
2017-02-05T08:28:44.648Z,21.31
2017-02-05T08:29:44.587Z,21.31
2017-02-05T08:30:44.525Z,21.41
2017-02-05T08:31:44.459Z,21.31
2017-02-05T08:32:44.399Z,21.51
2017-02-05T08:33:44.333Z,21.41
2017-02-05T08:34:44.273Z,21.52
2017-02-05T08:35:44.207Z,21.51
2017-02-05T08:36:44.152Z,21.51
2017-02-05T08:37:44.081Z,21.31
2017-02-05T08:38:44.021Z,21.31
2017-02-05T08:39:43.960Z,21.51
2017-02-05T08:40:43.890Z,21.51
2017-02-05T08:41:43.831Z,21.41
2017-02-05T08:42:43.766Z,21.41
2017-02-05T08:43:43.705Z,20.93
2017-02-05T08:44:43.642Z,21.31
2017-02-05T08:45:43.577Z,21.41
2017-02-05T08:46:43.516Z,21.31
2017-02-05T08:47:43.452Z,21.31
2017-02-05T08:48:43.386Z,21.41
2017-02-05T08:49:43.325Z,21.41
2017-02-05T08:51:43.200Z,21.51
2017-02-05T08:52:43.135Z,21.51
2017-02-05T08:53:43.072Z,21.31
2017-02-05T08:54:43.011Z,21.12
2017-02-05T08:55:42.948Z,21.12
2017-02-05T08:56:42.884Z,21.41
2017-02-05T08:57:42.835Z,21.41
2017-02-05T08:58:42.760Z,21.31
2017-02-05T08:59:42.695Z,21.41
2017-02-05T09:01:42.571Z,21.51
2017-02-05T09:02:42.502Z,21.41
2017-02-05T09:03:42.440Z,21.51
2017-02-05T09:04:42.378Z,21.51
2017-02-05T09:05:42.318Z,21.51
2017-02-05T09:06:42.251Z,21.51
2017-02-05T09:07:42.191Z,21.51
2017-02-05T09:08:42.128Z,21.51
2017-02-05T09:09:42.065Z,21.31
2017-02-05T09:11:41.940Z,21.51
2017-02-05T09:12:41.906Z,21.51
2017-02-05T09:13:41.815Z,21.51
2017-02-05T09:14:41.747Z,21.22
2017-02-05T09:15:41.684Z,21.12
2017-02-05T09:16:41.623Z,21.41
2017-02-05T09:17:41.559Z,21.12
2017-02-05T09:18:41.498Z,21.12
2017-02-05T09:19:41.434Z,21.41
2017-02-05T09:20:41.371Z,21.41
2017-02-05T09:21:41.311Z,21.51
2017-02-05T09:22:41.244Z,21.41
2017-02-05T09:23:41.184Z,21.41
2017-02-05T09:24:41.121Z,21.41
2017-02-05T09:25:41.053Z,21.03
2017-02-05T09:26:40.991Z,21.03
2017-02-05T09:27:40.929Z,20.94
2017-02-05T09:28:40.867Z,21.12
2017-02-05T09:29:40.803Z,21.12
2017-02-05T09:30:41.094Z,21.41
2017-02-05T09:31:40.678Z,21.41
2017-02-05T09:32:40.614Z,21.22
2017-02-05T09:33:40.550Z,21.13
2017-02-05T09:34:40.489Z,21.12
2017-02-05T09:35:40.426Z,21.41
2017-02-05T09:36:40.363Z,21.33
2017-02-05T09:37:40.302Z,21.31
2017-02-05T09:38:40.233Z,21.41
2017-02-05T09:39:40.173Z,21.41
2017-02-05T09:40:40.110Z,21.12
2017-02-05T09:41:40.045Z,21.12
2017-02-05T09:42:39.983Z,21.41
2017-02-05T09:43:39.922Z,21.41
2017-02-05T09:44:39.856Z,21.12
2017-02-05T09:46:39.730Z,21.41
2017-02-05T09:47:39.278Z,21.04
2017-02-05T09:48:39.605Z,21.12
2017-02-05T09:49:39.543Z,21.41
2017-02-05T09:50:39.481Z,21.12
2017-02-05T09:51:39.417Z,21.31
2017-02-05T09:52:39.350Z,21.03
2017-02-05T09:53:39.290Z,21.31
2017-02-05T09:54:39.225Z,21.03
2017-02-05T09:55:39.161Z,21.13
2017-02-05T09:56:39.101Z,20.93
2017-02-05T09:57:39.037Z,21.41
2017-02-05T09:58:39.004Z,21.03
2017-02-05T09:59:38.913Z,21.04
2017-02-05T10:00:38.850Z,21.03
2017-02-05T10:01:38.782Z,21.03
2017-02-05T10:02:38.719Z,21.31
2017-02-05T10:03:38.658Z,20.93
2017-02-05T10:04:38.593Z,21.22
2017-02-05T10:05:38.532Z,21.41
2017-02-05T10:06:38.467Z,21.03
2017-02-05T10:07:38.407Z,21.03
2017-02-05T10:08:38.343Z,21.22
2017-02-05T10:09:38.280Z,21.03
2017-02-05T10:10:37.829Z,20.93
2017-02-05T10:11:38.153Z,21.03
2017-02-05T10:12:38.089Z,21.12
2017-02-05T10:13:37.638Z,21.22
2017-02-05T10:14:37.572Z,21.04
2017-02-05T10:15:37.903Z,21.31
2017-02-05T10:16:37.840Z,21.7
2017-02-05T10:17:37.774Z,21.04
2017-02-05T10:18:37.711Z,21.51
2017-02-05T10:19:37.274Z,21.22
2017-02-05T10:20:37.588Z,21.12
2017-02-05T10:21:37.525Z,21.51
2017-02-05T10:22:37.457Z,21.12
2017-02-05T10:23:37.397Z,21.03
2017-02-05T10:24:37.336Z,21.41
2017-02-05T10:25:36.880Z,21.12
2017-02-05T10:26:37.207Z,21.22
2017-02-05T10:27:37.142Z,21.62
2017-02-05T10:28:37.082Z,21.03
2017-02-05T10:29:37.024Z,21.12
2017-02-05T10:30:36.566Z,21.03
2017-02-05T10:31:36.893Z,21.04
2017-02-05T10:32:36.830Z,21.33
2017-02-05T10:33:36.769Z,21.23
2017-02-05T10:34:36.704Z,21.23
2017-02-05T10:35:36.646Z,21.22
2017-02-05T10:36:36.226Z,20.93
2017-02-05T10:37:36.513Z,21.12
2017-02-05T10:38:36.454Z,21.33
2017-02-05T10:39:36.388Z,21.03
2017-02-05T10:40:36.576Z,21.31
2017-02-05T10:41:36.266Z,21.04
2017-02-05T10:42:36.200Z,21.03
2017-02-05T10:43:36.136Z,20.94
2017-02-05T10:44:36.071Z,21.33
2017-02-05T10:45:36.019Z,21.03
2017-02-05T10:46:35.951Z,20.93
2017-02-05T10:47:35.888Z,21.04
2017-02-05T10:48:35.825Z,21.04
2017-02-05T10:49:35.759Z,21.23
2017-02-05T10:50:35.697Z,21.22
2017-02-05T10:51:35.633Z,21.23
2017-02-05T10:52:35.570Z,20.94
2017-02-05T10:53:35.507Z,20.93
2017-02-05T10:54:35.442Z,21.03
2017-02-05T10:55:35.383Z,21.12
2017-02-05T10:56:35.321Z,21.12
2017-02-05T10:57:35.254Z,21.03
2017-02-05T10:58:35.193Z,21.22
2017-02-05T10:59:35.130Z,21.23
2017-02-05T11:01:35.002Z,21.22
2017-02-05T11:02:34.941Z,21.22
2017-02-05T11:03:34.882Z,21.22
2017-02-05T11:04:34.818Z,21.22
2017-02-05T11:05:34.753Z,21.23
2017-02-05T11:06:34.689Z,21.22
2017-02-05T11:07:34.623Z,21.22
2017-02-05T11:08:34.170Z,21.03
2017-02-05T11:09:34.108Z,21.03
2017-02-05T11:10:34.437Z,21.03
2017-02-05T11:11:34.374Z,21.03
2017-02-05T11:12:33.918Z,21.03
2017-02-05T11:13:33.857Z,21.12
2017-02-05T11:14:34.184Z,21.23
2017-02-05T11:15:34.374Z,20.93
2017-02-05T11:16:34.056Z,21.31
2017-02-05T11:17:33.993Z,21.03
2017-02-05T11:18:33.933Z,21.04
2017-02-05T11:19:33.870Z,21.04
2017-02-05T11:20:33.806Z,21.23
2017-02-05T11:21:33.745Z,21.22
2017-02-05T11:22:33.677Z,20.94
2017-02-05T11:23:33.225Z,21.22
2017-02-05T11:24:33.774Z,21.12
2017-02-05T11:25:33.492Z,21.03
2017-02-05T11:26:33.425Z,21.04
2017-02-05T11:27:33.367Z,21.03
2017-02-05T11:28:33.303Z,20.93
2017-02-05T11:29:33.237Z,21.22
2017-02-05T11:30:33.178Z,20.93
2017-02-05T11:31:33.114Z,21.04
2017-02-05T11:32:33.048Z,21.23
2017-02-05T11:33:32.599Z,21.12
2017-02-05T11:34:32.924Z,21.12
2017-02-05T11:35:32.859Z,21.04
2017-02-05T11:36:32.794Z,21.22
2017-02-05T11:37:32.735Z,21.22
2017-02-05T11:38:32.673Z,21.23
2017-02-05T11:39:32.614Z,21.22
2017-02-05T11:40:32.545Z,21.04
2017-02-05T11:41:32.482Z,21.22
2017-02-05T11:42:32.418Z,21.22
2017-02-05T11:43:32.361Z,21.04
2017-02-05T11:44:32.295Z,21.23
2017-02-05T11:46:32.166Z,21.12
2017-02-05T11:47:32.104Z,21.12
2017-02-05T11:48:32.045Z,21.61
2017-02-05T11:49:31.981Z,21.23
2017-02-05T11:50:46.412Z,21.22
2017-02-05T11:51:31.850Z,20.94
2017-02-05T11:52:31.789Z,21.04
2017-02-05T11:53:31.724Z,21.23
2017-02-05T11:54:31.665Z,21.22
2017-02-05T11:55:31.599Z,21.23
2017-02-05T11:56:31.538Z,21.04
2017-02-05T11:57:31.474Z,21.12
2017-02-05T11:58:31.413Z,21.22
2017-02-05T11:59:31.383Z,21.13
2017-02-05T12:00:31.282Z,21.22
2017-02-05T12:01:31.224Z,21.03
2017-02-05T12:02:30.768Z,20.94
2017-02-05T12:03:31.099Z,20.93
2017-02-05T12:04:31.035Z,21.12
2017-02-05T12:05:30.969Z,21.12
2017-02-05T12:06:30.905Z,20.84
2017-02-05T12:07:30.846Z,21.23
2017-02-05T12:08:30.391Z,21.03
2017-02-05T12:09:30.327Z,21.23
2017-02-05T12:10:30.655Z,21.03
2017-02-05T12:11:30.595Z,21.04
2017-02-05T12:12:30.543Z,21.03
2017-02-05T12:13:30.468Z,21.13
2017-02-05T12:14:30.403Z,20.93
2017-02-05T12:15:30.342Z,21.03
2017-02-05T12:16:29.887Z,20.93
2017-02-05T12:17:30.212Z,21.04
2017-02-05T12:18:30.152Z,21.03
2017-02-05T12:19:30.089Z,21.04
2017-02-05T12:20:30.028Z,21.04
2017-02-05T12:21:29.962Z,20.93
2017-02-05T12:22:29.900Z,20.93
2017-02-05T12:23:29.834Z,21.12
2017-02-05T12:24:29.773Z,21.12
2017-02-05T12:26:29.650Z,21.03
2017-02-05T12:27:29.585Z,20.93
2017-02-05T12:28:29.520Z,20.93
2017-02-05T12:29:29.458Z,20.93
2017-02-05T12:30:29.396Z,21.03
2017-02-05T12:31:29.332Z,21.12
2017-02-05T12:32:29.268Z,21.12
2017-02-05T12:33:29.214Z,21.12
2017-02-05T12:34:29.142Z,21.03
2017-02-05T12:35:29.081Z,21.04
2017-02-05T12:36:29.017Z,21.04
2017-02-05T12:37:28.958Z,20.94
2017-02-05T12:38:28.894Z,21.04
2017-02-05T12:39:28.827Z,21.03
2017-02-05T12:40:28.796Z,21.03
2017-02-05T12:41:28.703Z,21.04
2017-02-05T12:42:28.642Z,21.12
2017-02-05T12:43:28.574Z,21.13
2017-02-05T12:44:28.514Z,21.13
2017-02-05T12:45:28.449Z,21.12
2017-02-05T12:46:28.392Z,20.94
2017-02-05T12:47:28.324Z,21.04
2017-02-05T12:48:28.260Z,21.03
2017-02-05T12:49:28.200Z,21.03
2017-02-05T12:50:28.389Z,21.04
2017-02-05T12:51:28.075Z,20.93
2017-02-05T12:52:28.011Z,21.13
2017-02-05T12:53:27.947Z,21.22
2017-02-05T12:54:27.884Z,20.93
2017-02-05T12:55:27.823Z,21.03
2017-02-05T12:56:27.759Z,20.93
2017-02-05T12:57:27.695Z,21.03
2017-02-05T12:58:27.632Z,20.93
2017-02-05T12:59:27.570Z,21.04